Time;durP1;ratioP1;P1;durP2;ratioP2;P2;SDS_P1;SDS_P2;PMS_P1;PMS_P2;Temp;Humidity;BMP_temperature;BMP_pressure;BME280_temperature;BME280_humidity;BME280_pressure;Samples;Min_cycle;Max_cycle;Signal;HPM_P1;HPM_P2
2023/03/04 00:02:19;;;;;;;21.17;11.10;;;;;;;6.45;100.00;95184.88;4991996;28;20237;-79
2023/03/04 00:04:44;;;;;;;20.17;10.87;;;;;;;6.44;100.00;95183.28;4988314;28;20309;-77
2023/03/04 00:07:11;;;;;;;20.10;10.57;;;;;;;6.42;100.00;95193.03;5006888;28;20763;-78
2023/03/04 00:09:36;;;;;;;20.73;10.40;;;;;;;6.34;100.00;95192.22;4989536;28;20237;-78
2023/03/04 00:12:02;;;;;;;20.00;10.33;;;;;;;6.33;100.00;95186.22;4990577;28;21415;-77
2023/03/04 00:14:28;;;;;;;21.63;10.87;;;;;;;6.40;100.00;95187.16;5013292;28;20644;-78
2023/03/04 00:16:53;;;;;;;20.40;11.33;;;;;;;6.33;100.00;95185.41;4989318;28;20273;-78
2023/03/04 00:19:18;;;;;;;22.37;11.33;;;;;;;6.34;100.00;95181.81;5010391;28;20250;-78
2023/03/04 00:21:44;;;;;;;24.00;11.83;;;;;;;6.47;100.00;95177.72;4997482;28;20312;-78
2023/03/04 00:24:09;;;;;;;23.67;12.20;;;;;;;6.41;100.00;95173.19;4989445;28;20217;-78
2023/03/04 00:26:35;;;;;;;23.37;12.13;;;;;;;6.48;100.00;95171.53;4973463;28;20329;-78
2023/03/04 00:29:01;;;;;;;25.27;12.70;;;;;;;6.59;100.00;95171.16;4979106;28;20623;-78
2023/03/04 00:31:26;;;;;;;21.20;11.60;;;;;;;6.50;100.00;95172.19;4990667;28;20623;-76
2023/03/04 00:33:51;;;;;;;22.70;11.60;;;;;;;6.50;100.00;95166.97;5005500;28;20253;-78
2023/03/04 00:36:17;;;;;;;21.50;11.17;;;;;;;6.45;100.00;95164.06;4984266;28;20222;-78
2023/03/04 00:38:42;;;;;;;27.87;13.30;;;;;;;6.22;100.00;95157.97;5009645;28;20258;-78
2023/03/04 00:41:08;;;;;;;26.90;13.60;;;;;;;6.32;100.00;95158.59;4981782;28;20265;-77
2023/03/04 00:43:33;;;;;;;27.63;13.63;;;;;;;6.38;100.00;95160.53;4976381;28;21162;-78
2023/03/04 00:45:59;;;;;;;27.90;14.10;;;;;;;6.45;100.00;95158.88;4984399;28;20260;-78
2023/03/04 00:48:24;;;;;;;29.47;13.93;;;;;;;6.31;100.00;95156.97;4991946;28;20230;-77
2023/03/04 00:50:52;;;;;;;26.30;13.77;;;;;;;6.31;100.00;95154.38;4993027;28;20233;-79
2023/03/04 00:53:17;;;;;;;27.67;13.60;;;;;;;6.34;100.00;95155.84;4992495;28;20241;-78
2023/03/04 00:55:43;;;;;;;24.73;12.60;;;;;;;6.42;100.00;95159.22;4994912;28;20242;-78
2023/03/04 00:58:08;;;;;;;25.90;13.47;;;;;;;6.43;100.00;95155.63;5009816;28;20328;-79
2023/03/04 01:00:34;;;;;;;23.93;12.57;;;;;;;6.51;100.00;95153.00;5011709;28;20260;-79
2023/03/04 01:02:59;;;;;;;24.17;12.37;;;;;;;6.38;100.00;95151.91;4992289;28;20265;-78
2023/03/04 01:05:25;;;;;;;23.67;12.47;;;;;;;6.39;100.00;95156.97;4993418;28;20259;-78
2023/03/04 01:07:50;;;;;;;23.37;12.50;;;;;;;6.43;100.00;95153.03;5009329;28;20779;-79
2023/03/04 01:10:16;;;;;;;23.13;11.90;;;;;;;6.53;100.00;95160.63;4987887;28;20229;-78
2023/03/04 01:12:42;;;;;;;24.03;12.07;;;;;;;6.47;100.00;95156.91;4986616;28;20242;-77
2023/03/04 01:15:11;;;;;;;24.77;12.50;;;;;;;6.52;100.00;95159.03;4995982;28;20222;-78
2023/03/04 01:17:36;;;;;;;25.20;12.77;;;;;;;6.44;100.00;95152.06;4977049;28;20790;-77
2023/03/04 01:20:03;;;;;;;26.93;12.63;;;;;;;6.39;100.00;95148.34;4989969;28;20237;-78
2023/03/04 01:22:28;;;;;;;26.13;12.43;;;;;;;6.38;100.00;95147.53;4988459;28;21005;-78
2023/03/04 01:24:54;;;;;;;22.73;12.17;;;;;;;6.41;100.00;95146.38;5008025;28;20229;-78
2023/03/04 01:27:19;;;;;;;23.13;12.27;;;;;;;6.42;100.00;95143.63;4995981;28;20237;-78
2023/03/04 01:29:45;;;;;;;25.23;11.93;;;;;;;6.48;100.00;95142.13;5032357;28;20241;-77
2023/03/04 01:32:10;;;;;;;24.60;12.90;;;;;;;6.37;100.00;95137.31;4994209;28;20234;-78
2023/03/04 01:34:35;;;;;;;25.20;12.30;;;;;;;6.36;100.00;95136.50;5011377;28;20674;-77
2023/03/04 01:37:01;;;;;;;24.80;11.93;;;;;;;6.43;100.00;95132.25;5009149;28;20241;-78
2023/03/04 01:39:26;;;;;;;22.87;11.73;;;;;;;6.43;100.00;95137.44;5004096;28;20230;-77
2023/03/04 01:41:52;;;;;;;24.13;12.20;;;;;;;6.45;100.00;95134.69;4991975;28;20226;-77
2023/03/04 01:44:18;;;;;;;23.93;12.07;;;;;;;6.27;100.00;95124.50;5010769;28;20592;-78
2023/03/04 01:46:47;;;;;;;24.53;12.43;;;;;;;6.29;100.00;95122.56;5013714;28;20266;-78
2023/03/04 01:49:12;;;;;;;25.87;12.63;;;;;;;6.37;100.00;95119.13;4997730;28;20233;-78
2023/03/04 01:51:38;;;;;;;22.83;12.23;;;;;;;6.36;100.00;95120.91;4990185;28;20238;-77
2023/03/04 01:54:03;;;;;;;22.17;12.23;;;;;;;6.38;100.00;95125.91;4987348;28;20280;-77
2023/03/04 01:56:34;;;;;;;24.67;12.47;;;;;;;6.29;100.00;95116.53;4991373;28;20284;-78
2023/03/04 01:59:09;;;;;;;26.70;13.03;;;;;;;6.35;100.00;95115.88;4991445;28;20233;-77
2023/03/04 02:01:35;;;;;;;24.43;12.63;;;;;;;6.45;100.00;95111.28;5002268;28;20291;-77
2023/03/04 02:04:00;;;;;;;23.97;12.03;;;;;;;6.40;100.00;95116.97;4994324;28;20276;-79
2023/03/04 02:06:26;;;;;;;24.77;12.67;;;;;;;6.36;100.00;95114.88;4974085;28;20238;-78
2023/03/04 02:08:51;;;;;;;23.87;12.10;;;;;;;6.34;100.00;95122.88;4991002;28;20226;-78
2023/03/04 02:11:16;;;;;;;23.10;12.10;;;;;;;6.39;100.00;95111.94;4986308;28;20230;-77
2023/03/04 02:13:42;;;;;;;24.53;12.40;;;;;;;6.40;100.00;95114.38;4991781;28;20226;-77
2023/03/04 02:16:07;;;;;;;21.90;11.90;;;;;;;6.35;100.00;95111.50;4999286;28;20226;-77
2023/03/04 02:18:33;;;;;;;21.77;12.20;;;;;;;6.38;100.00;95110.31;4987010;28;20230;-77
2023/03/04 02:21:01;;;;;;;24.00;12.43;;;;;;;6.35;100.00;95111.50;4987130;28;20626;-77
2023/03/04 02:23:47;;;;;;;24.87;11.90;;;;;;;6.21;100.00;95114.00;5021884;28;20262;-78
2023/03/04 02:26:20;;;;;;;23.30;12.23;;;;;;;6.26;100.00;95109.88;5006743;28;20226;-78
2023/03/04 02:28:47;;;;;;;25.40;12.07;;;;;;;6.38;100.00;95113.75;4987506;28;20391;-77
2023/03/04 02:31:22;;;;;;;21.23;11.47;;;;;;;6.34;100.00;95112.47;5007795;28;20256;-78
2023/03/04 02:33:47;;;;;;;24.93;11.67;;;;;;;6.23;100.00;95112.84;5024572;28;20584;-78
2023/03/04 02:36:13;;;;;;;22.67;11.77;;;;;;;6.06;100.00;95116.47;4984710;28;20229;-78
2023/03/04 02:38:38;;;;;;;23.37;11.80;;;;;;;6.05;100.00;95114.84;4983578;28;20241;-77
2023/03/04 02:41:04;;;;;;;24.23;11.83;;;;;;;5.89;100.00;95104.50;4975340;28;20810;-78
2023/03/04 02:43:29;;;;;;;23.00;11.90;;;;;;;5.81;100.00;95101.88;4990562;28;20291;-78
2023/03/04 02:45:55;;;;;;;23.30;12.00;;;;;;;5.75;100.00;95097.34;5012326;28;20280;-78
2023/03/04 02:48:20;;;;;;;23.90;12.07;;;;;;;5.71;100.00;95099.47;5011344;28;20241;-78
2023/03/04 02:50:48;;;;;;;24.77;11.63;;;;;;;5.60;100.00;95099.00;4988075;28;20727;-78
2023/03/04 02:53:14;;;;;;;21.50;11.47;;;;;;;5.46;100.00;95090.09;4986076;28;20320;-78
2023/03/04 02:55:41;;;;;;;26.97;12.63;;;;;;;5.35;100.00;95099.03;4990882;28;20237;-78
2023/03/04 02:58:06;;;;;;;25.97;13.27;;;;;;;5.36;100.00;95098.06;4984941;28;20321;-79
2023/03/04 03:00:32;;;;;;;26.87;13.70;;;;;;;5.39;100.00;95096.91;4988921;28;20329;-78
2023/03/04 03:02:57;;;;;;;26.77;13.20;;;;;;;5.30;100.00;95088.31;5024671;28;20234;-79
2023/03/04 03:05:27;;;;;;;26.27;13.20;;;;;;;5.34;100.00;95091.41;4986917;28;20222;-78
2023/03/04 03:07:53;;;;;;;24.60;12.87;;;;;;;5.33;100.00;95093.19;4984588;28;20615;-78
2023/03/04 03:10:18;;;;;;;25.07;12.60;;;;;;;5.34;100.00;95094.81;4993314;28;20723;-78
2023/03/04 03:12:44;;;;;;;25.20;12.40;;;;;;;5.36;100.00;95099.84;4990159;28;20892;-78
2023/03/04 03:15:10;;;;;;;25.43;12.73;;;;;;;5.26;100.00;95102.59;5002766;28;20673;-79
2023/03/04 03:17:35;;;;;;;26.87;12.30;;;;;;;5.27;100.00;95104.22;4992505;28;20234;-79
2023/03/04 03:20:01;;;;;;;28.63;13.27;;;;;;;5.28;100.00;95103.25;4984594;28;20226;-79
2023/03/04 03:22:27;;;;;;;24.83;12.10;;;;;;;5.23;100.00;95109.91;4994122;28;20241;-78
2023/03/04 03:24:52;;;;;;;26.50;12.37;;;;;;;5.05;100.00;95096.28;5006800;28;20226;-79
2023/03/04 03:27:18;;;;;;;23.33;11.80;;;;;;;5.04;100.00;95098.03;4983051;28;20654;-79
2023/03/04 03:29:43;;;;;;;23.37;11.80;;;;;;;4.99;100.00;95097.72;4991302;28;20222;-78
2023/03/04 03:32:09;;;;;;;23.83;12.00;;;;;;;5.01;100.00;95110.53;4987831;28;20256;-79
2023/03/04 03:34:34;;;;;;;24.67;12.33;;;;;;;5.04;100.00;95098.03;4992340;28;20281;-79
2023/03/04 03:37:00;;;;;;;25.43;12.43;;;;;;;4.99;100.00;95089.94;5006199;28;20267;-79
2023/03/04 03:39:25;;;;;;;26.13;12.30;;;;;;;5.00;100.00;95093.34;4984977;28;20241;-78
2023/03/04 03:41:51;;;;;;;27.33;12.50;;;;;;;5.04;100.00;95092.84;4989425;28;20230;-78
2023/03/04 03:44:16;;;;;;;26.03;12.77;;;;;;;4.87;100.00;95086.06;4973628;28;20226;-79
2023/03/04 03:46:42;;;;;;;27.00;12.80;;;;;;;4.88;100.00;95094.63;4970815;28;20238;-78
2023/03/04 03:49:07;;;;;;;27.20;12.40;;;;;;;4.89;100.00;95091.91;5006967;28;20812;-78
2023/03/04 03:51:33;;;;;;;24.10;12.30;;;;;;;4.72;100.00;95091.06;5005984;28;20237;-79
2023/03/04 03:53:58;;;;;;;26.60;12.83;;;;;;;4.70;100.00;95087.78;4989754;28;20264;-79
2023/03/04 03:56:24;;;;;;;27.67;12.73;;;;;;;4.60;100.00;95083.75;4992213;28;20233;-78
2023/03/04 03:58:49;;;;;;;26.10;12.33;;;;;;;4.76;100.00;95081.16;4968355;28;20234;-79
2023/03/04 04:01:15;;;;;;;26.37;12.67;;;;;;;4.69;100.00;95082.78;4989440;28;20379;-79
2023/03/04 04:03:40;;;;;;;26.23;12.40;;;;;;;4.71;100.00;95080.84;4992987;28;20234;-78
2023/03/04 04:06:06;;;;;;;25.03;12.03;;;;;;;4.54;100.00;95079.19;4988001;28;20282;-79
2023/03/04 04:08:32;;;;;;;28.13;12.47;;;;;;;4.49;100.00;95076.28;4996213;28;20316;-78
2023/03/04 04:10:57;;;;;;;24.40;11.97;;;;;;;4.52;100.00;95070.75;5009879;28;23305;-78
2023/03/04 04:13:23;;;;;;;29.83;12.77;;;;;;;4.41;100.00;95078.84;4993056;28;20293;-78
2023/03/04 04:15:50;;;;;;;25.93;12.07;;;;;;;4.63;100.00;95073.06;5008869;28;20226;-78
2023/03/04 04:18:16;;;;;;;25.27;12.13;;;;;;;4.59;100.00;95071.75;4992367;28;20299;-78
2023/03/04 04:20:41;;;;;;;24.03;12.23;;;;;;;4.51;100.00;95076.94;4986887;28;20246;-79
2023/03/04 04:23:07;;;;;;;28.73;12.67;;;;;;;4.46;100.00;95072.22;4990942;28;20229;-78
2023/03/04 04:25:32;;;;;;;27.00;12.83;;;;;;;4.45;100.00;95072.34;4991576;28;20559;-79
2023/03/04 04:27:58;;;;;;;25.17;12.37;;;;;;;4.48;100.00;95065.09;5008675;28;20280;-79
2023/03/04 04:30:23;;;;;;;31.10;12.50;;;;;;;4.55;100.00;95073.84;5004376;28;20266;-80
2023/03/04 04:32:49;;;;;;;25.37;12.43;;;;;;;4.67;100.00;95071.75;4981703;28;20242;-80
2023/03/04 04:35:14;;;;;;;27.17;12.57;;;;;;;4.80;100.00;95072.09;4968698;28;20226;-79
2023/03/04 04:37:40;;;;;;;28.13;13.20;;;;;;;4.72;100.00;95075.50;4986218;28;20283;-78
2023/03/04 04:40:06;;;;;;;30.83;12.87;;;;;;;4.46;100.00;95077.41;4988505;28;20305;-79
2023/03/04 04:42:32;;;;;;;26.57;12.83;;;;;;;4.36;100.00;95075.91;4987751;28;20238;-79
2023/03/04 04:44:57;;;;;;;29.00;12.90;;;;;;;4.35;100.00;95075.09;4973174;28;20717;-78
2023/03/04 04:47:23;;;;;;;27.00;12.90;;;;;;;4.35;100.00;95079.44;5004900;28;20303;-79
2023/03/04 04:49:48;;;;;;;30.13;13.03;;;;;;;4.27;100.00;95074.25;4990034;28;20946;-78
2023/03/04 04:52:14;;;;;;;26.37;12.63;;;;;;;4.18;100.00;95070.81;4972889;28;20262;-78
2023/03/04 04:54:39;;;;;;;29.13;12.83;;;;;;;4.21;100.00;95078.28;4981859;28;20234;-78
2023/03/04 04:57:05;;;;;;;28.90;13.17;;;;;;;4.23;100.00;95078.94;4988010;28;20241;-78
2023/03/04 04:59:30;;;;;;;26.93;12.73;;;;;;;4.22;100.00;95081.69;4982162;28;20234;-79
2023/03/04 05:01:56;;;;;;;24.93;12.97;;;;;;;4.15;100.00;95091.88;4989133;28;20275;-79
2023/03/04 05:04:21;;;;;;;26.63;12.47;;;;;;;4.23;100.00;95093.69;5005208;28;20635;-78
2023/03/04 05:06:47;;;;;;;26.33;13.17;;;;;;;4.18;100.00;95101.13;4997899;28;20230;-77
2023/03/04 05:09:12;;;;;;;30.10;13.53;;;;;;;4.24;100.00;95093.53;4988146;28;20730;-78
2023/03/04 05:11:38;;;;;;;25.90;12.80;;;;;;;4.59;100.00;95098.47;4988756;28;20491;-77
2023/03/04 05:14:03;;;;;;;28.97;13.27;;;;;;;4.78;100.00;95102.56;4981003;28;20226;-79
2023/03/04 05:16:29;;;;;;;27.23;12.90;;;;;;;4.87;100.00;95108.59;4997601;28;20237;-78
2023/03/04 05:18:54;;;;;;;25.17;12.43;;;;;;;4.84;100.00;95112.31;4977551;28;20237;-78
2023/03/04 05:21:19;;;;;;;27.90;12.80;;;;;;;4.93;100.00;95111.34;5008993;28;20226;-78
2023/03/04 05:23:45;;;;;;;26.47;13.03;;;;;;;4.92;100.00;95106.31;5009808;28;20695;-78
2023/03/04 05:26:13;;;;;;;27.27;12.80;;;;;;;5.12;100.00;95105.03;4999871;28;20227;-78
2023/03/04 05:28:38;;;;;;;26.53;12.63;;;;;;;5.10;100.00;95105.19;4985544;28;20234;-78
2023/03/04 05:31:04;;;;;;;26.40;12.90;;;;;;;4.97;100.00;95112.63;5006267;28;20279;-78
2023/03/04 05:33:30;;;;;;;32.63;13.63;;;;;;;4.95;100.00;95114.56;4976620;28;20230;-77
2023/03/04 05:35:55;;;;;;;27.80;12.70;;;;;;;5.08;100.00;95117.53;4988451;28;20234;-78
2023/03/04 05:38:21;;;;;;;27.40;13.43;;;;;;;5.06;100.00;95116.88;4987673;28;20245;-77
2023/03/04 05:40:47;;;;;;;28.77;13.53;;;;;;;5.22;100.00;95110.88;4987680;28;20241;-78
2023/03/04 05:43:12;;;;;;;31.13;14.47;;;;;;;5.30;100.00;95119.44;4988899;28;20243;-78
2023/03/04 05:45:38;;;;;;;29.13;13.50;;;;;;;5.27;100.00;95114.59;4986960;28;20233;-75
2023/03/04 05:48:04;;;;;;;31.13;13.40;;;;;;;5.29;100.00;95119.63;5009121;28;20268;-78
2023/03/04 05:50:29;;;;;;;28.83;14.17;;;;;;;5.36;100.00;95113.63;4993707;28;20279;-78
2023/03/04 05:52:55;;;;;;;31.83;14.57;;;;;;;5.54;100.00;95121.22;4991822;28;20238;-78
2023/03/04 05:55:20;;;;;;;30.03;14.90;;;;;;;5.61;100.00;95124.81;4988569;28;20226;-78
2023/03/04 05:57:46;;;;;;;30.43;14.60;;;;;;;5.54;100.00;95120.44;4980871;28;20231;-77
2023/03/04 06:00:12;;;;;;;31.00;15.20;;;;;;;5.58;100.00;95124.31;4987669;28;20218;-78
2023/03/04 06:02:38;;;;;;;34.13;15.03;;;;;;;5.43;100.00;95129.34;5008295;28;20229;-75
2023/03/04 06:05:04;;;;;;;31.23;15.67;;;;;;;5.40;100.00;95129.66;5009535;28;20225;-77
2023/03/04 06:07:30;;;;;;;34.53;15.87;;;;;;;5.54;100.00;95136.00;4984117;28;20719;-77
2023/03/04 06:09:56;;;;;;;33.87;15.20;;;;;;;5.59;100.00;95129.34;4978974;28;20244;-78
2023/03/04 06:12:21;;;;;;;30.70;14.73;;;;;;;5.67;100.00;95129.34;4990287;28;20731;-78
2023/03/04 06:14:46;;;;;;;31.27;15.07;;;;;;;5.73;100.00;95136.44;5007849;28;20260;-77
2023/03/04 06:17:12;;;;;;;30.87;15.03;;;;;;;5.80;100.00;95134.84;4997033;28;20238;-78
2023/03/04 06:19:38;;;;;;;29.83;15.23;;;;;;;5.85;100.00;95139.56;4986199;28;20593;-78
2023/03/04 06:22:04;;;;;;;32.27;15.60;;;;;;;5.90;100.00;95137.28;4974554;28;20241;-77
2023/03/04 06:24:29;;;;;;;34.10;15.43;;;;;;;5.92;100.00;95130.16;4992114;28;20321;-79
2023/03/04 06:26:55;;;;;;;34.10;15.77;;;;;;;6.07;100.00;95141.44;4986005;28;20461;-77
2023/03/04 06:29:20;;;;;;;35.70;18.60;;;;;;;6.02;100.00;95141.13;5007813;28;20677;-77
2023/03/04 06:31:46;;;;;;;37.63;18.80;;;;;;;6.13;100.00;95143.41;4986448;28;20253;-78
2023/03/04 06:34:11;;;;;;;32.97;17.77;;;;;;;6.20;100.00;95136.56;4996727;28;20649;-78
2023/03/04 06:36:37;;;;;;;41.13;19.67;;;;;;;6.31;100.00;95141.38;4973854;28;20238;-78
2023/03/04 06:39:05;;;;;;;37.33;18.93;;;;;;;6.36;100.00;95143.47;4989590;28;20226;-78
2023/03/04 06:41:31;;;;;;;40.60;20.70;;;;;;;6.32;100.00;95142.19;4990397;28;20722;-78
2023/03/04 06:43:57;;;;;;;45.93;22.80;;;;;;;6.29;100.00;95145.94;4986327;28;20230;-78
2023/03/04 06:46:22;;;;;;;39.20;19.80;;;;;;;6.21;100.00;95148.56;4983679;28;20264;-78
2023/03/04 06:48:48;;;;;;;40.47;20.67;;;;;;;6.28;100.00;95151.31;4990399;28;20234;-78
2023/03/04 06:51:14;;;;;;;43.40;20.90;;;;;;;6.33;100.00;95152.41;4980404;28;20232;-78
2023/03/04 06:53:39;;;;;;;38.73;19.90;;;;;;;6.31;100.00;95146.59;4994405;28;20240;-79
2023/03/04 06:56:05;;;;;;;38.57;19.77;;;;;;;6.50;100.00;95153.97;4990869;28;20272;-80
2023/03/04 06:58:31;;;;;;;35.50;18.43;;;;;;;6.50;99.20;95155.75;5006633;28;20739;-79
2023/03/04 07:00:56;;;;;;;37.67;18.90;;;;;;;6.52;98.06;95154.63;5007254;28;20795;-78
2023/03/04 07:03:22;;;;;;;38.83;19.07;;;;;;;6.60;98.79;95157.19;5010409;28;20309;-78
2023/03/04 07:05:48;;;;;;;37.00;19.80;;;;;;;6.70;98.43;95163.00;4995028;28;20649;-79
2023/03/04 07:08:13;;;;;;;25.97;12.93;;;;;;;6.50;97.49;95160.97;4977254;28;20237;-79
2023/03/04 07:10:39;;;;;;;23.50;11.57;;;;;;;6.63;97.35;95161.25;4990012;28;20242;-78
2023/03/04 07:13:04;;;;;;;26.70;12.03;;;;;;;6.63;96.92;95161.25;4990233;28;20284;-79
2023/03/04 07:15:30;;;;;;;27.70;12.83;;;;;;;6.68;96.58;95157.16;4993493;28;20722;-79
2023/03/04 07:17:55;;;;;;;25.07;11.87;;;;;;;6.67;96.03;95162.53;4991199;28;20238;-79
2023/03/04 07:20:20;;;;;;;31.80;15.47;;;;;;;6.54;96.52;95168.25;5006205;28;20880;-78
2023/03/04 07:22:46;;;;;;;31.60;14.17;;;;;;;6.47;98.14;95172.50;5004572;28;20241;-78
2023/03/04 07:25:11;;;;;;;33.10;15.80;;;;;;;6.36;98.51;95170.28;5009014;28;20229;-78
2023/03/04 07:27:37;;;;;;;30.93;15.67;;;;;;;6.57;98.74;95167.09;5006233;28;20238;-78
2023/03/04 07:30:06;;;;;;;34.33;14.93;;;;;;;6.82;96.67;95166.03;4973546;28;20226;-78
2023/03/04 07:32:34;;;;;;;27.23;12.60;;;;;;;7.04;95.84;95170.47;4991077;28;20242;-78
2023/03/04 07:35:00;;;;;;;26.67;12.40;;;;;;;7.05;94.65;95166.88;5007945;28;20308;-79
2023/03/04 07:37:25;;;;;;;27.03;13.03;;;;;;;6.94;94.20;95169.06;5010111;28;20877;-79
2023/03/04 07:39:50;;;;;;;26.33;12.37;;;;;;;7.09;93.49;95175.16;5009369;28;20230;-79
2023/03/04 07:42:16;;;;;;;29.47;13.43;;;;;;;7.18;93.77;95171.53;5016616;28;20389;-80
2023/03/04 07:44:42;;;;;;;32.77;14.63;;;;;;;7.05;93.31;95176.47;4988850;28;20265;-78
2023/03/04 07:47:08;;;;;;;35.10;14.80;;;;;;;7.16;95.49;95171.72;4997078;28;20368;-78
2023/03/04 07:49:33;;;;;;;29.07;14.10;;;;;;;7.02;93.93;95172.41;4975323;28;20274;-78
2023/03/04 07:52:02;;;;;;;31.97;13.73;;;;;;;6.64;95.19;95168.06;4986662;28;20233;-78
2023/03/04 07:54:28;;;;;;;29.53;13.47;;;;;;;6.79;93.84;95158.56;4982612;28;20237;-78
2023/03/04 07:56:53;;;;;;;31.43;14.03;;;;;;;6.82;94.92;95165.22;4986557;28;20222;-79
2023/03/04 07:59:19;;;;;;;37.23;15.47;;;;;;;6.77;95.31;95161.34;4991726;28;20229;-78
2023/03/04 08:01:44;;;;;;;36.63;17.20;;;;;;;6.77;96.13;95163.94;4992061;28;20313;-77
2023/03/04 08:04:10;;;;;;;39.10;18.20;;;;;;;7.11;96.25;95165.38;4983728;28;20230;-78
2023/03/04 08:06:35;;;;;;;42.30;20.77;;;;;;;6.96;97.00;95159.28;4992746;28;20836;-79
2023/03/04 08:09:04;;;;;;;48.17;22.43;;;;;;;6.93;98.63;95152.63;4979116;28;20716;-78
2023/03/04 08:11:30;;;;;;;56.17;23.93;;;;;;;7.09;98.50;95159.56;5008494;28;20234;-79
2023/03/04 08:13:55;;;;;;;53.73;23.40;;;;;;;7.19;98.16;95163.53;4983307;28;20233;-79
2023/03/04 08:16:21;;;;;;;46.67;22.50;;;;;;;7.11;98.18;95165.38;5007979;28;20321;-78
2023/03/04 08:18:49;;;;;;;46.03;21.67;;;;;;;6.67;99.58;95158.13;4986200;28;20772;-78
2023/03/04 08:21:15;;;;;;;44.70;20.93;;;;;;;6.65;99.88;95154.91;5024067;28;20368;-78
2023/03/04 08:23:41;;;;;;;44.47;21.00;;;;;;;6.82;99.61;95160.03;5006352;28;20266;-79
2023/03/04 08:26:11;;;;;;;48.93;22.47;;;;;;;6.88;99.07;95154.16;4995170;28;20261;-79
2023/03/04 08:28:37;;;;;;;48.00;22.47;;;;;;;6.84;98.83;95158.88;5006525;28;20237;-78
2023/03/04 08:31:02;;;;;;;44.03;20.83;;;;;;;6.99;97.94;95156.34;4974995;28;20237;-77
2023/03/04 08:33:28;;;;;;;44.33;20.43;;;;;;;6.78;97.50;95154.38;4986583;28;20234;-76
2023/03/04 08:35:54;;;;;;;41.60;20.03;;;;;;;6.71;97.45;95156.81;4988611;28;20313;-79
2023/03/04 08:38:19;;;;;;;42.00;20.63;;;;;;;6.62;97.66;95149.22;4982578;28;20352;-78
2023/03/04 08:40:45;;;;;;;40.87;20.37;;;;;;;6.63;98.14;95151.66;5005912;28;20707;-79
2023/03/04 08:43:10;;;;;;;42.43;19.70;;;;;;;6.79;98.09;95154.19;5023238;28;20237;-79
2023/03/04 08:45:35;;;;;;;43.00;20.53;;;;;;;6.98;96.86;95149.50;5003063;28;20230;-80
2023/03/04 08:48:01;;;;;;;42.57;20.47;;;;;;;7.06;96.74;95147.69;4986247;28;20241;-80
2023/03/04 08:50:27;;;;;;;40.97;19.50;;;;;;;6.88;96.63;95148.94;4989641;28;20234;-80
2023/03/04 08:52:53;;;;;;;42.50;20.30;;;;;;;7.13;96.44;95140.00;4977618;28;20786;-79
2023/03/04 08:55:19;;;;;;;42.33;19.80;;;;;;;7.14;95.06;95146.84;5004825;28;20227;-78
2023/03/04 08:57:45;;;;;;;46.23;20.37;;;;;;;7.02;96.35;95150.81;4990042;28;20222;-79
2023/03/04 09:00:11;;;;;;;38.60;19.27;;;;;;;7.07;95.62;95148.50;5009001;28;20230;-79
2023/03/04 09:02:37;;;;;;;43.43;19.77;;;;;;;7.10;95.45;95143.75;5005463;28;20665;-79
2023/03/04 09:05:03;;;;;;;42.43;20.00;;;;;;;7.16;95.63;95142.25;4989681;28;20313;-78
2023/03/04 09:07:28;;;;;;;40.90;19.43;;;;;;;7.45;94.12;95142.38;4989841;28;20234;-78
2023/03/04 09:09:54;;;;;;;38.90;18.40;;;;;;;7.48;92.96;95135.00;5006771;28;20820;-78
2023/03/04 09:12:19;;;;;;;44.93;20.40;;;;;;;7.61;92.32;95136.22;4970646;28;20694;-78
2023/03/04 09:14:45;;;;;;;50.00;20.20;;;;;;;7.46;93.46;95133.56;5012114;28;20612;-79
2023/03/04 09:17:10;;;;;;;39.83;18.97;;;;;;;7.54;92.04;95136.13;5031594;28;20230;-79
2023/03/04 09:19:36;;;;;;;37.57;18.20;;;;;;;7.67;91.38;95132.91;4997763;28;20297;-80
2023/03/04 09:22:01;;;;;;;35.87;17.37;;;;;;;8.03;90.70;95132.06;4981677;28;20241;-79
2023/03/04 09:24:27;;;;;;;36.03;16.63;;;;;;;8.19;89.12;95128.50;4998342;28;20299;-79
2023/03/04 09:26:53;;;;;;;38.77;17.40;;;;;;;8.39;90.19;95126.97;5008250;28;20288;-77
2023/03/04 09:29:18;;;;;;;33.67;16.20;;;;;;;8.33;88.36;95122.50;4993313;28;20234;-78
2023/03/04 09:31:44;;;;;;;38.90;18.00;;;;;;;8.46;88.88;95127.88;4976738;28;20233;-78
2023/03/04 09:34:09;;;;;;;39.10;18.20;;;;;;;8.40;89.20;95126.00;4994477;28;20899;-79
2023/03/04 09:36:35;;;;;;;40.63;17.67;;;;;;;8.28;89.14;95118.81;4997081;28;20234;-79
2023/03/04 09:39:01;;;;;;;39.47;18.10;;;;;;;8.27;89.45;95119.78;4982331;28;20242;-78
2023/03/04 09:41:37;;;;;;;33.23;16.83;;;;;;;7.89;89.35;95116.41;4961679;28;20310;-79
2023/03/04 09:44:27;;;;;;;35.73;16.57;;;;;;;8.11;89.59;95112.94;4977243;28;20367;-78
2023/03/04 09:46:52;;;;;;;41.23;16.60;;;;;;;8.35;87.78;95119.69;5017100;28;20274;-78
2023/03/04 09:49:18;;;;;;;36.80;16.77;;;;;;;8.54;87.71;95122.56;4977609;28;20318;-78
2023/03/04 09:51:46;;;;;;;33.60;15.97;;;;;;;8.30;88.74;95116.81;4969570;28;20313;-79
2023/03/04 09:54:41;;;;;;;37.27;16.70;;;;;;;8.23;88.63;95115.88;4998014;28;20272;-78
2023/03/04 09:57:16;;;;;;;36.37;15.87;;;;;;;8.38;88.84;95109.72;4996146;28;20250;-78
2023/03/04 10:00:04;;;;;;;35.07;16.23;;;;;;;8.20;87.01;95108.41;4997040;28;20238;-77
2023/03/04 10:02:38;;;;;;;32.53;14.40;;;;;;;8.27;87.32;95104.94;5006396;28;20317;-78
2023/03/04 10:05:04;;;;;;;32.33;14.73;;;;;;;8.59;86.49;95104.56;4973689;28;20782;-77
2023/03/04 10:07:35;;;;;;;34.27;14.40;;;;;;;8.85;86.07;95103.25;4989160;28;20262;-78
2023/03/04 10:10:09;;;;;;;28.93;13.67;;;;;;;9.07;84.43;95095.25;4984934;28;20927;-78
2023/03/04 10:12:38;;;;;;;32.47;14.90;;;;;;;8.38;85.32;95091.47;4973027;28;20291;-78
2023/03/04 10:15:07;;;;;;;37.17;14.40;;;;;;;8.53;85.52;95097.47;4989547;28;20313;-79
2023/03/04 10:17:37;;;;;;;35.27;14.87;;;;;;;8.65;84.51;95084.75;4968141;28;20237;-79
2023/03/04 10:20:18;;;;;;;28.27;13.93;;;;;;;8.95;83.70;95088.91;4978542;28;20234;-80
2023/03/04 10:22:47;;;;;;;31.57;14.67;;;;;;;9.30;85.79;95082.81;4994492;28;20250;-78
2023/03/04 10:25:24;;;;;;;31.53;14.07;;;;;;;9.11;82.31;95080.84;4981028;28;20226;-80
2023/03/04 10:28:01;;;;;;;31.13;13.53;;;;;;;9.45;81.94;95075.72;4988078;28;20293;-78
2023/03/04 10:30:54;;;;;;;29.70;13.37;;;;;;;9.70;80.49;95075.28;4970507;28;20257;-78
2023/03/04 10:33:27;;;;;;;30.07;14.00;;;;;;;8.89;82.26;95073.16;5004469;28;20246;-78
2023/03/04 10:36:24;;;;;;;30.27;13.93;;;;;;;9.15;82.84;95065.59;4967594;28;20238;-79
2023/03/04 10:38:52;;;;;;;30.90;13.67;;;;;;;9.27;83.12;95064.91;5005851;28;20242;-79
2023/03/04 10:41:20;;;;;;;33.83;14.10;;;;;;;9.64;81.50;95055.97;4968887;28;20281;-79
2023/03/04 10:43:57;;;;;;;34.03;14.23;;;;;;;9.33;81.73;95045.88;4971791;28;20227;-78
2023/03/04 10:46:23;;;;;;;30.60;13.93;;;;;;;9.09;82.79;95043.66;5005941;28;20297;-80
2023/03/04 10:48:48;;;;;;;32.60;14.20;;;;;;;9.36;82.16;95047.31;4975310;28;20235;-79
2023/03/04 10:51:21;;;;;;;29.83;14.17;;;;;;;9.34;81.13;95044.06;4969385;28;20722;-79
2023/03/04 10:53:51;;;;;;;35.90;14.40;;;;;;;9.43;81.22;95037.72;4986639;28;20234;-79
2023/03/04 10:56:41;;;;;;;31.03;14.70;;;;;;;9.33;80.73;95035.44;5003858;28;20238;-79
2023/03/04 10:59:45;;;;;;;34.30;15.77;;;;;;;9.27;81.75;95036.19;4997957;28;20230;-79
2023/03/04 11:02:36;;;;;;;31.93;13.93;;;;;;;9.28;82.32;95029.16;5005071;28;20236;-78
2023/03/04 11:05:06;;;;;;;32.80;14.60;;;;;;;9.14;81.35;95025.63;5000928;28;20230;-78
2023/03/04 11:07:34;;;;;;;34.30;14.90;;;;;;;9.29;82.66;95021.13;5004656;28;20301;-78
2023/03/04 11:10:17;;;;;;;33.00;14.00;;;;;;;8.59;83.34;95015.06;4968967;28;20742;-79
2023/03/04 11:12:46;;;;;;;33.67;14.30;;;;;;;8.85;83.13;95010.09;4984559;28;20243;-77
2023/03/04 11:15:23;;;;;;;29.23;14.23;;;;;;;9.42;83.32;95002.97;4987373;28;20227;-78
2023/03/04 11:17:50;;;;;;;40.43;18.37;;;;;;;9.80;81.99;95002.59;4986284;28;21073;-79
2023/03/04 11:20:27;;;;;;;32.40;14.27;;;;;;;9.56;80.26;94996.00;4987681;28;20234;-79